createdAt,value
2017-11-03T00:00:02.592Z,11.06
2017-11-03T00:01:02.643Z,10.94
2017-11-03T00:02:02.659Z,10.91
2017-11-03T00:03:02.689Z,10.88
2017-11-03T00:04:02.726Z,10.76
2017-11-03T00:05:02.757Z,10.85
2017-11-03T00:06:02.788Z,10.84
2017-11-03T00:07:02.820Z,10.68
2017-11-03T00:08:02.854Z,10.71
2017-11-03T00:09:02.887Z,10.76
2017-11-03T00:10:02.918Z,10.70
2017-11-03T00:11:02.951Z,10.68
2017-11-03T00:12:02.983Z,10.64
2017-11-03T00:13:03.025Z,10.74
2017-11-03T00:14:03.048Z,10.73
2017-11-03T00:15:03.087Z,10.71
2017-11-03T00:16:03.113Z,10.78
2017-11-03T00:17:03.147Z,10.68
2017-11-03T00:18:03.179Z,10.71
2017-11-03T00:19:03.225Z,10.78
2017-11-03T00:20:03.248Z,10.71
2017-11-03T00:21:03.276Z,10.78
2017-11-03T00:22:03.308Z,10.88
2017-11-03T00:23:03.340Z,10.89
2017-11-03T00:24:03.374Z,10.89
2017-11-03T00:25:03.405Z,10.89
2017-11-03T00:26:03.438Z,10.92
2017-11-03T00:27:03.469Z,10.88
2017-11-03T00:28:03.502Z,10.91
2017-11-03T00:29:03.536Z,10.91
2017-11-03T00:30:03.569Z,11.02
2017-11-03T00:31:03.599Z,10.99
2017-11-03T00:32:03.631Z,10.88
2017-11-03T00:33:03.664Z,10.96
2017-11-03T00:34:03.695Z,10.89
2017-11-03T00:35:03.778Z,10.88
2017-11-03T00:36:03.761Z,10.85
2017-11-03T00:37:03.793Z,10.74
2017-11-03T00:38:03.824Z,10.76
2017-11-03T00:39:03.857Z,10.70
2017-11-03T00:40:03.889Z,10.70
2017-11-03T00:41:03.929Z,10.73
2017-11-03T00:42:03.954Z,10.63
2017-11-03T00:43:03.986Z,10.59
2017-11-03T00:44:04.019Z,10.61
2017-11-03T00:45:04.052Z,10.61
2017-11-03T00:46:04.085Z,10.60
2017-11-03T00:47:04.115Z,10.63
2017-11-03T00:48:04.147Z,10.64
2017-11-03T00:49:04.185Z,10.60
2017-11-03T00:50:04.212Z,10.56
2017-11-03T00:51:04.244Z,10.59
2017-11-03T00:52:04.280Z,10.60
2017-11-03T00:53:04.317Z,10.64
2017-11-03T00:54:04.340Z,10.60
2017-11-03T00:55:04.374Z,10.63
2017-11-03T00:56:04.408Z,10.61
2017-11-03T00:57:04.438Z,10.55
2017-11-03T00:58:04.469Z,10.66
2017-11-03T00:59:04.504Z,10.64
2017-11-03T01:00:04.538Z,10.68
2017-11-03T01:01:04.568Z,10.71
2017-11-03T01:02:04.603Z,10.76
2017-11-03T01:03:04.633Z,10.71
2017-11-03T01:04:04.671Z,10.68
2017-11-03T01:05:04.698Z,10.74
2017-11-03T01:06:04.729Z,10.71
2017-11-03T01:07:04.761Z,10.68
2017-11-03T01:08:04.794Z,10.66
2017-11-03T01:09:04.827Z,10.66
2017-11-03T01:10:04.856Z,10.64
2017-11-03T01:11:04.890Z,10.60
2017-11-03T01:12:04.923Z,10.53
2017-11-03T01:13:04.955Z,10.59
2017-11-03T01:14:04.987Z,10.60
2017-11-03T01:15:05.020Z,10.63
2017-11-03T01:16:05.051Z,10.64
2017-11-03T01:17:05.085Z,10.68
2017-11-03T01:18:05.116Z,10.73
2017-11-03T01:19:05.149Z,10.74
2017-11-03T01:20:05.181Z,10.70
2017-11-03T01:21:05.213Z,10.71
2017-11-03T01:22:05.245Z,10.71
2017-11-03T01:23:05.277Z,10.79
2017-11-03T01:24:05.310Z,10.68
2017-11-03T01:25:05.343Z,10.66
2017-11-03T01:26:05.374Z,10.74
2017-11-03T01:27:05.406Z,10.71
2017-11-03T01:28:05.439Z,10.74
2017-11-03T01:29:05.472Z,10.78
2017-11-03T01:30:05.502Z,10.74
2017-11-03T01:31:05.538Z,10.76
2017-11-03T01:32:05.618Z,10.71
2017-11-03T01:33:05.600Z,10.78
2017-11-03T01:34:05.642Z,10.76
2017-11-03T01:35:05.665Z,10.79
2017-11-03T01:36:05.698Z,10.76
2017-11-03T01:37:05.729Z,10.76
2017-11-03T01:38:05.761Z,10.89
2017-11-03T01:39:05.794Z,10.88
2017-11-03T01:40:05.826Z,10.78
2017-11-03T01:41:05.860Z,10.78
2017-11-03T01:42:05.890Z,10.73
2017-11-03T01:43:05.922Z,10.71
2017-11-03T01:44:05.953Z,10.66
2017-11-03T01:45:05.987Z,10.63
2017-11-03T01:46:06.018Z,10.68
2017-11-03T01:47:06.063Z,10.60
2017-11-03T01:48:06.085Z,10.61
2017-11-03T01:49:06.116Z,10.52
2017-11-03T01:50:06.147Z,10.60
2017-11-03T01:51:06.180Z,10.59
2017-11-03T01:52:06.212Z,10.53
2017-11-03T01:53:06.244Z,10.55
2017-11-03T01:54:06.277Z,10.56
2017-11-03T01:55:06.309Z,10.56
2017-11-03T01:56:06.345Z,10.60
2017-11-03T01:57:06.374Z,10.51
2017-11-03T01:58:06.405Z,10.51
2017-11-03T01:59:06.439Z,10.45
2017-11-03T02:00:06.470Z,10.56
2017-11-03T02:01:06.503Z,10.55
2017-11-03T02:02:06.535Z,10.55
2017-11-03T02:03:06.567Z,10.53
2017-11-03T02:04:06.599Z,10.55
2017-11-03T02:05:06.632Z,10.61
2017-11-03T02:06:06.663Z,10.74
2017-11-03T02:07:06.696Z,10.74
2017-11-03T02:08:06.779Z,10.74
2017-11-03T02:09:06.760Z,10.74
2017-11-03T02:10:06.796Z,10.79
2017-11-03T02:11:06.824Z,10.78
2017-11-03T02:12:06.857Z,10.84
2017-11-03T02:13:06.889Z,10.82
2017-11-03T02:14:06.934Z,10.84
2017-11-03T02:15:06.953Z,10.84
2017-11-03T02:16:06.985Z,10.88
2017-11-03T02:17:07.018Z,10.79
2017-11-03T02:18:07.049Z,10.79
2017-11-03T02:19:07.081Z,10.84
2017-11-03T02:20:07.122Z,10.74
2017-11-03T02:21:07.146Z,10.74
2017-11-03T02:22:07.177Z,10.63
2017-11-03T02:23:07.260Z,10.68
2017-11-03T02:24:07.243Z,10.64
2017-11-03T02:25:07.274Z,10.67
2017-11-03T02:26:07.306Z,10.60
2017-11-03T02:27:07.339Z,10.59
2017-11-03T02:28:07.371Z,10.53
2017-11-03T02:29:07.406Z,10.56
2017-11-03T02:30:07.436Z,10.40
2017-11-03T02:31:07.467Z,10.38
2017-11-03T02:32:07.500Z,10.29
2017-11-03T02:33:07.582Z,10.30
2017-11-03T02:34:07.563Z,10.30
2017-11-03T02:35:07.597Z,10.30
2017-11-03T02:36:07.628Z,10.45
2017-11-03T02:37:07.660Z,10.42
2017-11-03T02:38:07.692Z,10.59
2017-11-03T02:39:07.724Z,10.63
2017-11-03T02:40:07.761Z,10.61
2017-11-03T02:41:07.789Z,10.67
2017-11-03T02:42:07.820Z,10.60
2017-11-03T02:43:07.856Z,10.59
2017-11-03T02:44:07.883Z,10.63
2017-11-03T02:45:07.918Z,10.71
2017-11-03T02:46:07.949Z,10.76
2017-11-03T02:47:07.980Z,10.64
2017-11-03T02:48:08.013Z,10.66
2017-11-03T02:49:08.045Z,10.67
2017-11-03T02:50:08.077Z,10.64
2017-11-03T02:51:08.109Z,10.61
2017-11-03T02:52:08.142Z,10.59
2017-11-03T02:53:08.173Z,10.48
2017-11-03T02:54:08.205Z,10.48
2017-11-03T02:55:08.238Z,10.63
2017-11-03T02:56:08.269Z,10.51
2017-11-03T02:57:08.302Z,10.47
2017-11-03T02:58:08.333Z,10.52
2017-11-03T02:59:08.366Z,10.55
2017-11-03T03:00:08.398Z,10.59
2017-11-03T03:01:08.431Z,10.59
2017-11-03T03:02:08.462Z,10.61
2017-11-03T03:03:08.493Z,10.60
2017-11-03T03:04:08.526Z,10.55
2017-11-03T03:05:08.559Z,10.59
2017-11-03T03:06:08.590Z,10.55
2017-11-03T03:07:08.622Z,10.56
2017-11-03T03:08:08.656Z,10.45
2017-11-03T03:09:08.737Z,10.47
2017-11-03T03:10:08.718Z,10.51
2017-11-03T03:11:08.750Z,10.48
2017-11-03T03:12:08.783Z,10.47
2017-11-03T03:13:08.817Z,10.40
2017-11-03T03:14:08.847Z,10.45
2017-11-03T03:15:08.880Z,10.38
2017-11-03T03:16:08.912Z,10.36
2017-11-03T03:17:08.945Z,10.36
2017-11-03T03:18:08.975Z,10.45
2017-11-03T03:19:09.009Z,10.56
2017-11-03T03:20:09.041Z,10.60
2017-11-03T03:21:09.072Z,10.61
2017-11-03T03:22:09.105Z,10.61
2017-11-03T03:23:09.137Z,10.64
2017-11-03T03:24:09.170Z,10.66
2017-11-03T03:25:09.202Z,10.66
2017-11-03T03:26:09.234Z,10.71
2017-11-03T03:27:09.266Z,10.74
2017-11-03T03:28:09.298Z,10.67
2017-11-03T03:29:09.332Z,10.71
2017-11-03T03:30:09.362Z,10.73
2017-11-03T03:31:09.394Z,10.71
2017-11-03T03:32:09.426Z,10.73
2017-11-03T03:33:09.459Z,10.81
2017-11-03T03:34:09.490Z,10.88
2017-11-03T03:35:09.524Z,10.82
2017-11-03T03:36:09.555Z,10.78
2017-11-03T03:37:09.588Z,10.79
2017-11-03T03:38:09.620Z,10.71
2017-11-03T03:39:09.651Z,10.67
2017-11-03T03:40:09.685Z,10.60
2017-11-03T03:41:09.717Z,10.52
2017-11-03T03:42:09.748Z,10.47
2017-11-03T03:43:09.781Z,10.40
2017-11-03T03:44:09.811Z,10.40
2017-11-03T03:45:09.845Z,10.41
2017-11-03T03:46:09.876Z,10.36
2017-11-03T03:47:09.908Z,10.40
2017-11-03T03:48:09.942Z,10.44
2017-11-03T03:49:09.973Z,10.38
2017-11-03T03:50:10.005Z,10.33
2017-11-03T03:51:10.036Z,10.36
2017-11-03T03:52:10.070Z,10.34
2017-11-03T03:53:10.101Z,10.45
2017-11-03T03:54:10.133Z,10.42
2017-11-03T03:55:10.166Z,10.55
2017-11-03T03:56:10.197Z,10.59
2017-11-03T03:57:10.231Z,10.52
2017-11-03T03:58:10.262Z,10.52
2017-11-03T03:59:10.295Z,10.66
2017-11-03T04:00:10.377Z,10.66
2017-11-03T04:01:10.359Z,10.51
2017-11-03T04:02:10.391Z,10.61
2017-11-03T04:03:10.423Z,10.70
2017-11-03T04:04:10.453Z,10.67
2017-11-03T04:05:10.487Z,10.68
2017-11-03T04:06:10.518Z,10.64
2017-11-03T04:07:10.550Z,10.66
2017-11-03T04:08:10.583Z,10.64
2017-11-03T04:09:10.616Z,10.74
2017-11-03T04:10:10.647Z,10.76
2017-11-03T04:11:10.679Z,10.71
2017-11-03T04:12:10.711Z,10.64
2017-11-03T04:13:10.744Z,10.63
2017-11-03T04:14:10.774Z,10.66
2017-11-03T04:15:10.808Z,10.67
2017-11-03T04:16:10.840Z,10.61
2017-11-03T04:17:10.872Z,10.63
2017-11-03T04:18:10.903Z,10.52
2017-11-03T04:19:10.936Z,10.61
2017-11-03T04:20:10.969Z,10.51
2017-11-03T04:21:11.000Z,10.55
2017-11-03T04:22:11.030Z,10.53
2017-11-03T04:23:11.064Z,10.45
2017-11-03T04:24:11.096Z,10.53
2017-11-03T04:25:11.127Z,10.63
2017-11-03T04:26:11.159Z,10.59
2017-11-03T04:27:11.190Z,10.68
2017-11-03T04:28:11.224Z,10.68
2017-11-03T04:29:11.271Z,10.66
2017-11-03T04:30:11.287Z,10.64
2017-11-03T04:31:11.318Z,10.63
2017-11-03T04:32:11.353Z,10.70
2017-11-03T04:33:11.386Z,10.64
2017-11-03T04:34:11.416Z,10.74
2017-11-03T04:35:11.448Z,10.70
2017-11-03T04:36:11.481Z,10.74
2017-11-03T04:37:11.514Z,10.78
2017-11-03T04:38:11.544Z,10.78
2017-11-03T04:39:11.577Z,10.74
2017-11-03T04:40:11.608Z,10.84
2017-11-03T04:41:11.641Z,10.82
2017-11-03T04:42:11.671Z,10.94
2017-11-03T04:43:11.704Z,10.86
2017-11-03T04:44:11.738Z,10.86
2017-11-03T04:45:11.767Z,10.94
2017-11-03T04:46:11.799Z,10.97
2017-11-03T04:47:11.832Z,10.94
2017-11-03T04:48:11.864Z,10.91
2017-11-03T04:49:11.897Z,10.94
2017-11-03T04:50:11.934Z,10.86
2017-11-03T04:51:11.960Z,10.86
2017-11-03T04:52:11.991Z,10.79
2017-11-03T04:53:12.026Z,10.71
2017-11-03T04:54:12.056Z,10.56
2017-11-03T04:55:12.087Z,10.63
2017-11-03T04:56:12.119Z,10.61
2017-11-03T04:57:12.154Z,10.48
2017-11-03T04:58:12.184Z,10.55
2017-11-03T04:59:12.216Z,10.51
2017-11-03T05:00:12.249Z,10.48
2017-11-03T05:01:12.281Z,10.61
2017-11-03T05:02:12.312Z,10.48
2017-11-03T05:03:12.345Z,10.59
2017-11-03T05:04:12.377Z,10.67
2017-11-03T05:05:12.410Z,10.60
2017-11-03T05:06:12.441Z,10.61
2017-11-03T05:07:12.474Z,10.63
2017-11-03T05:08:12.505Z,10.64
2017-11-03T05:09:12.538Z,10.67
2017-11-03T05:10:12.570Z,10.70
2017-11-03T05:11:12.602Z,10.63
2017-11-03T05:12:12.683Z,10.64
2017-11-03T05:13:12.667Z,10.68
2017-11-03T05:14:12.698Z,10.74
2017-11-03T05:15:12.730Z,10.67
2017-11-03T05:16:12.762Z,10.64
2017-11-03T05:17:12.795Z,10.74
2017-11-03T05:18:12.827Z,10.78
2017-11-03T05:19:12.859Z,10.81
2017-11-03T05:20:12.891Z,10.82
2017-11-03T05:21:12.929Z,10.89
2017-11-03T05:22:12.959Z,10.86
2017-11-03T05:23:12.987Z,10.86
2017-11-03T05:24:13.020Z,10.89
2017-11-03T05:25:13.051Z,10.89
2017-11-03T05:26:13.082Z,10.88
2017-11-03T05:27:13.116Z,10.85
2017-11-03T05:28:13.147Z,10.85
2017-11-03T05:29:13.180Z,10.84
2017-11-03T05:30:13.209Z,10.89
2017-11-03T05:31:13.244Z,10.85
2017-11-03T05:32:13.274Z,10.89
2017-11-03T05:33:13.307Z,10.74
2017-11-03T05:34:13.339Z,10.79
2017-11-03T05:35:13.370Z,10.81
2017-11-03T05:36:13.403Z,10.71
2017-11-03T05:37:13.435Z,10.71
2017-11-03T05:38:13.467Z,10.66
2017-11-03T05:39:13.499Z,10.66
2017-11-03T05:40:13.531Z,10.60
2017-11-03T05:41:13.564Z,10.60
2017-11-03T05:42:13.596Z,10.53
2017-11-03T05:43:13.626Z,10.55
2017-11-03T05:44:13.660Z,10.53
2017-11-03T05:45:13.692Z,10.55
2017-11-03T05:46:13.724Z,10.63
2017-11-03T05:47:13.760Z,10.61
2017-11-03T05:48:13.789Z,10.71
2017-11-03T05:49:13.820Z,10.74
2017-11-03T05:50:13.852Z,10.70
2017-11-03T05:51:13.884Z,10.82
2017-11-03T05:52:13.916Z,10.88
2017-11-03T05:53:13.949Z,10.79
2017-11-03T05:54:13.981Z,10.84
2017-11-03T05:55:14.013Z,10.85
2017-11-03T05:56:14.046Z,10.84
2017-11-03T05:57:14.077Z,10.79
2017-11-03T05:58:14.108Z,10.82
2017-11-03T05:59:14.140Z,10.78
2017-11-03T06:00:14.174Z,10.71
2017-11-03T06:01:14.209Z,10.70
2017-11-03T06:02:14.236Z,10.74
2017-11-03T06:03:14.269Z,10.71
2017-11-03T06:04:14.302Z,10.67
2017-11-03T06:05:14.335Z,10.66
2017-11-03T06:06:14.366Z,10.60
2017-11-03T06:07:14.399Z,10.56
2017-11-03T06:08:14.431Z,10.67
2017-11-03T06:09:14.463Z,10.64
2017-11-03T06:10:14.494Z,10.61
2017-11-03T06:11:14.527Z,10.64
2017-11-03T06:12:14.557Z,10.64
2017-11-03T06:13:14.592Z,10.59
2017-11-03T06:14:14.621Z,10.64
2017-11-03T06:15:14.655Z,10.67
2017-11-03T06:16:14.688Z,10.67
2017-11-03T06:17:14.739Z,10.70
2017-11-03T06:18:14.751Z,10.81
2017-11-03T06:19:14.783Z,10.84
2017-11-03T06:20:14.816Z,10.76
2017-11-03T06:21:14.849Z,10.84
2017-11-03T06:22:14.880Z,10.84
2017-11-03T06:23:14.912Z,10.88
2017-11-03T06:24:14.945Z,10.96
2017-11-03T06:25:14.979Z,10.94
2017-11-03T06:26:15.009Z,10.96
2017-11-03T06:27:15.043Z,10.92
2017-11-03T06:28:15.073Z,10.96
2017-11-03T06:29:15.104Z,11.02
2017-11-03T06:30:15.136Z,10.97
2017-11-03T06:31:15.168Z,10.96
2017-11-03T06:32:15.205Z,11.04
2017-11-03T06:33:15.241Z,11.00
2017-11-03T06:34:15.264Z,10.97
2017-11-03T06:35:16.207Z,10.91
2017-11-03T06:36:15.329Z,10.91
2017-11-03T06:37:15.361Z,10.91
2017-11-03T06:38:15.393Z,10.84
2017-11-03T06:39:15.425Z,10.76
2017-11-03T06:40:15.458Z,10.86
2017-11-03T06:41:15.490Z,10.79
2017-11-03T06:42:15.573Z,10.94
2017-11-03T06:43:15.554Z,10.94
2017-11-03T06:44:15.586Z,10.94
2017-11-03T06:45:15.618Z,10.96
2017-11-03T06:46:15.649Z,10.96
2017-11-03T06:47:15.695Z,11.04
2017-11-03T06:48:15.715Z,11.15
2017-11-03T06:49:15.746Z,11.18
2017-11-03T06:50:15.782Z,11.15
2017-11-03T06:51:15.810Z,11.25
2017-11-03T06:52:15.843Z,11.22
2017-11-03T06:53:15.880Z,11.29
2017-11-03T06:54:15.940Z,11.25
2017-11-03T06:55:15.941Z,11.32
2017-11-03T06:56:15.971Z,11.32
2017-11-03T06:57:16.004Z,11.39
2017-11-03T06:58:16.036Z,11.27
2017-11-03T06:59:16.068Z,11.39
2017-11-03T07:00:16.151Z,11.28
2017-11-03T07:01:16.134Z,11.32
2017-11-03T07:02:16.165Z,11.33
2017-11-03T07:03:16.198Z,11.25
2017-11-03T07:04:16.229Z,11.35
2017-11-03T07:05:16.262Z,11.37
2017-11-03T07:06:16.294Z,11.27
2017-11-03T07:07:16.326Z,11.32
2017-11-03T07:08:16.358Z,11.29
2017-11-03T07:09:16.390Z,11.33
2017-11-03T07:10:16.424Z,11.42
2017-11-03T07:11:16.455Z,11.40
2017-11-03T07:12:16.487Z,11.43
2017-11-03T07:13:16.523Z,11.52
2017-11-03T07:14:16.551Z,11.52
2017-11-03T07:15:16.584Z,11.55
2017-11-03T07:16:16.617Z,11.52
2017-11-03T07:17:16.648Z,11.47
2017-11-03T07:18:16.680Z,11.58
2017-11-03T07:19:16.717Z,11.69
2017-11-03T07:20:16.746Z,11.75
2017-11-03T07:21:16.780Z,12.71
2017-11-03T07:22:16.811Z,12.92
2017-11-03T07:23:16.845Z,13.32
2017-11-03T07:24:16.880Z,13.44
2017-11-03T07:25:16.909Z,13.14
2017-11-03T07:26:17.082Z,12.96
2017-11-03T07:27:16.975Z,12.83
2017-11-03T07:28:17.011Z,12.70
2017-11-03T07:29:17.040Z,12.70
2017-11-03T07:30:17.075Z,12.70
2017-11-03T07:31:17.106Z,12.95
2017-11-03T07:32:17.138Z,13.22
2017-11-03T07:33:17.215Z,13.38
2017-11-03T07:34:17.204Z,13.39
2017-11-03T07:35:17.283Z,13.46
2017-11-03T07:36:17.270Z,13.89
2017-11-03T07:37:17.304Z,13.77
2017-11-03T07:38:17.335Z,13.64
2017-11-03T07:39:17.394Z,13.57
2017-11-03T07:40:17.402Z,14.24
2017-11-03T07:41:17.436Z,15.34
2017-11-03T07:42:17.469Z,15.96
2017-11-03T07:43:17.501Z,15.64
2017-11-03T07:44:17.537Z,16.21
2017-11-03T07:45:17.570Z,16.57
2017-11-03T07:46:17.602Z,15.80
2017-11-03T07:47:17.637Z,15.10
2017-11-03T07:48:17.672Z,14.69
2017-11-03T07:49:17.725Z,14.45
2017-11-03T07:50:17.739Z,14.14
2017-11-03T07:51:17.773Z,13.99
2017-11-03T07:52:17.808Z,13.92
2017-11-03T07:53:17.842Z,13.95
2017-11-03T07:54:17.875Z,14.37
2017-11-03T07:55:17.910Z,14.32
2017-11-03T07:56:17.947Z,14.10
2017-11-03T07:57:17.979Z,14.09
2017-11-03T07:58:18.011Z,14.09
2017-11-03T07:59:18.047Z,14.12
2017-11-03T08:00:18.079Z,14.14
2017-11-03T08:01:18.115Z,14.36
2017-11-03T08:02:18.149Z,14.77
2017-11-03T08:03:18.183Z,14.51
2017-11-03T08:04:18.217Z,14.27
2017-11-03T08:05:18.253Z,14.36
2017-11-03T08:06:18.287Z,14.27
2017-11-03T08:07:18.321Z,14.00
2017-11-03T08:08:18.355Z,13.97
2017-11-03T08:09:18.391Z,13.77
2017-11-03T08:10:18.424Z,13.64
2017-11-03T08:11:18.459Z,13.62
2017-11-03T08:12:18.493Z,13.52
2017-11-03T08:13:18.529Z,13.54
2017-11-03T08:14:18.562Z,13.55
2017-11-03T08:15:18.599Z,13.63
2017-11-03T08:16:18.638Z,13.49
2017-11-03T08:17:18.667Z,13.63
2017-11-03T08:18:18.701Z,13.64
2017-11-03T08:19:18.734Z,13.88
2017-11-03T08:20:18.770Z,14.03
2017-11-03T08:21:18.805Z,14.02
2017-11-03T08:22:18.840Z,14.15
2017-11-03T08:23:18.875Z,14.29
2017-11-03T08:24:18.910Z,14.54
2017-11-03T08:25:18.945Z,14.64
2017-11-03T08:26:18.980Z,14.84
2017-11-03T08:27:19.014Z,15.03
2017-11-03T08:28:19.056Z,15.35
2017-11-03T08:29:19.084Z,15.49
2017-11-03T08:30:19.119Z,15.41
2017-11-03T08:31:19.154Z,15.35
2017-11-03T08:32:19.189Z,15.28
2017-11-03T08:33:19.226Z,15.23
2017-11-03T08:34:19.260Z,15.28
2017-11-03T08:35:19.296Z,15.32
2017-11-03T08:36:19.331Z,15.39
2017-11-03T08:37:19.367Z,15.94
2017-11-03T08:38:19.402Z,16.12
2017-11-03T08:39:19.438Z,16.14
2017-11-03T08:40:19.488Z,16.20
2017-11-03T08:41:19.510Z,16.31
2017-11-03T08:42:19.546Z,16.43
2017-11-03T08:43:19.580Z,16.52
2017-11-03T08:44:19.618Z,16.58
2017-11-03T08:45:19.653Z,16.49
2017-11-03T08:46:19.690Z,16.78
2017-11-03T08:47:19.727Z,18.51
2017-11-03T08:48:19.764Z,20.28
2017-11-03T08:49:19.799Z,19.73
2017-11-03T08:50:19.854Z,19.31
2017-11-03T08:51:19.873Z,19.74
2017-11-03T08:52:19.910Z,20.91
2017-11-03T08:53:19.947Z,21.27
2017-11-03T08:54:19.985Z,21.25
2017-11-03T08:55:20.024Z,22.14
2017-11-03T08:56:20.063Z,23.16
2017-11-03T08:57:20.105Z,23.04
2017-11-03T08:58:20.138Z,23.01
2017-11-03T08:59:20.181Z,23.58
2017-11-03T09:00:20.245Z,23.46
2017-11-03T09:01:20.255Z,22.52
2017-11-03T09:02:20.294Z,22.61
2017-11-03T09:03:20.334Z,23.00
2017-11-03T09:04:20.374Z,22.18
2017-11-03T09:05:20.414Z,22.03
2017-11-03T09:06:20.454Z,21.24
2017-11-03T09:07:20.493Z,20.77
2017-11-03T09:08:20.583Z,21.17
2017-11-03T09:09:20.574Z,21.21
2017-11-03T09:10:20.614Z,22.10
2017-11-03T09:11:20.654Z,22.97
2017-11-03T09:12:20.698Z,22.47
2017-11-03T09:13:20.737Z,22.70
2017-11-03T09:14:20.783Z,24.20
2017-11-03T09:15:20.825Z,24.43
2017-11-03T09:16:20.858Z,25.47
2017-11-03T09:17:20.899Z,24.90
2017-11-03T09:18:20.943Z,23.57
2017-11-03T09:19:21.135Z,22.39
2017-11-03T09:20:21.024Z,21.40
2017-11-03T09:21:21.094Z,20.80
2017-11-03T09:22:21.107Z,20.32
2017-11-03T09:23:21.194Z,19.96
2017-11-03T09:24:21.189Z,19.58
2017-11-03T09:25:21.272Z,20.38
2017-11-03T09:26:21.272Z,20.50
2017-11-03T09:27:21.313Z,20.24
2017-11-03T09:28:21.354Z,20.08
2017-11-03T09:29:21.395Z,19.92
2017-11-03T09:30:21.435Z,19.80
2017-11-03T09:31:21.476Z,22.20
2017-11-03T09:32:21.517Z,21.54
2017-11-03T09:33:21.559Z,21.92
2017-11-03T09:34:21.598Z,23.42
2017-11-03T09:35:21.640Z,25.06
2017-11-03T09:36:21.681Z,26.12
2017-11-03T09:37:21.724Z,26.60
2017-11-03T09:38:21.763Z,26.36
2017-11-03T09:39:21.808Z,27.43
2017-11-03T09:40:21.849Z,28.44
2017-11-03T09:41:21.891Z,29.28
2017-11-03T09:42:21.934Z,29.18
2017-11-03T09:43:21.978Z,28.98
2017-11-03T09:44:22.021Z,28.76
2017-11-03T09:45:22.081Z,28.68
2017-11-03T09:46:22.112Z,28.98
2017-11-03T09:47:22.157Z,29.14
2017-11-03T09:48:22.204Z,28.44
2017-11-03T09:49:22.246Z,27.90
2017-11-03T09:50:22.295Z,28.21
2017-11-03T09:51:22.337Z,27.28
2017-11-03T09:52:22.383Z,27.78
2017-11-03T09:53:22.428Z,28.25
2017-11-03T09:54:22.526Z,28.24
2017-11-03T09:55:22.523Z,27.39
2017-11-03T09:56:22.568Z,25.18
2017-11-03T09:57:22.617Z,22.06
2017-11-03T09:58:22.665Z,21.69
2017-11-03T09:59:23.400Z,23.57
2017-11-03T10:00:22.756Z,25.00
2017-11-03T10:01:22.805Z,25.90
2017-11-03T10:02:22.849Z,25.92
2017-11-03T10:03:22.896Z,26.13
2017-11-03T10:04:22.943Z,25.00
2017-11-03T10:05:22.993Z,24.65
2017-11-03T10:06:23.037Z,25.10
2017-11-03T10:07:23.085Z,25.38
2017-11-03T10:08:23.133Z,24.85
2017-11-03T10:09:23.181Z,25.87
2017-11-03T10:10:23.228Z,26.15
2017-11-03T10:11:23.276Z,26.72
2017-11-03T10:12:23.325Z,26.40
2017-11-03T10:13:23.374Z,25.00
2017-11-03T10:14:23.421Z,25.03
2017-11-03T10:15:23.496Z,25.95
2017-11-03T10:16:23.519Z,26.63
2017-11-03T10:17:23.568Z,26.63
2017-11-03T10:18:23.616Z,26.62
2017-11-03T10:19:23.666Z,26.63
2017-11-03T10:20:23.724Z,25.91
2017-11-03T10:21:23.770Z,25.57
2017-11-03T10:22:23.818Z,25.87
2017-11-03T10:23:23.864Z,26.32
2017-11-03T10:24:23.914Z,26.17
2017-11-03T10:25:24.013Z,25.69
2017-11-03T10:26:24.013Z,26.76
2017-11-03T10:27:24.064Z,27.29
2017-11-03T10:28:24.111Z,27.54
2017-11-03T10:29:24.162Z,27.72
2017-11-03T10:30:24.211Z,29.09
2017-11-03T10:31:24.265Z,29.52
2017-11-03T10:32:24.312Z,29.65
2017-11-03T10:33:24.366Z,30.13
2017-11-03T10:34:24.412Z,29.53
2017-11-03T10:35:24.514Z,30.23
2017-11-03T10:36:24.513Z,29.27
2017-11-03T10:37:24.564Z,29.33
2017-11-03T10:38:24.613Z,27.93
2017-11-03T10:39:24.665Z,25.87
2017-11-03T10:40:24.718Z,24.96
2017-11-03T10:41:24.768Z,26.85
2017-11-03T10:42:24.817Z,27.18
2017-11-03T10:43:24.869Z,27.79
2017-11-03T10:44:24.922Z,28.36
2017-11-03T10:45:24.971Z,27.46
2017-11-03T10:46:25.021Z,27.51
2017-11-03T10:47:25.073Z,28.04
2017-11-03T10:48:25.127Z,28.59
2017-11-03T10:49:25.178Z,28.74
2017-11-03T10:50:25.228Z,28.48
2017-11-03T10:51:25.430Z,26.55
2017-11-03T10:52:25.332Z,27.88
2017-11-03T10:53:25.383Z,26.72
2017-11-03T10:54:25.437Z,24.57
2017-11-03T10:55:25.486Z,24.64
2017-11-03T10:56:25.589Z,25.25
2017-11-03T10:57:25.590Z,25.21
2017-11-03T10:58:25.641Z,24.49
2017-11-03T10:59:25.693Z,23.83
2017-11-03T11:00:25.746Z,22.49
2017-11-03T11:01:25.801Z,20.54
2017-11-03T11:02:25.846Z,20.97
2017-11-03T11:03:25.899Z,22.03
2017-11-03T11:04:25.963Z,22.05
2017-11-03T11:05:25.999Z,22.80
2017-11-03T11:06:26.048Z,23.05
2017-11-03T11:07:26.197Z,22.88
2017-11-03T11:08:26.148Z,22.42
2017-11-03T11:09:26.197Z,22.70
2017-11-03T11:10:26.245Z,24.34
2017-11-03T11:11:26.294Z,26.60
2017-11-03T11:12:26.342Z,26.02
2017-11-03T11:13:26.392Z,27.65
2017-11-03T11:14:26.445Z,28.67
2017-11-03T11:15:26.486Z,29.86
2017-11-03T11:16:26.535Z,30.08
2017-11-03T11:17:26.585Z,30.49
2017-11-03T11:18:26.633Z,30.29
2017-11-03T11:19:26.685Z,31.07
2017-11-03T11:20:26.734Z,32.01
2017-11-03T11:21:26.781Z,32.65
2017-11-03T11:22:26.829Z,32.69
2017-11-03T11:23:26.880Z,32.67
2017-11-03T11:24:26.930Z,33.16
2017-11-03T11:25:26.980Z,33.04
2017-11-03T11:26:27.030Z,30.70
2017-11-03T11:27:27.080Z,27.99
2017-11-03T11:28:27.130Z,25.73
2017-11-03T11:29:27.183Z,25.00
2017-11-03T11:30:27.231Z,27.29
2017-11-03T11:31:27.281Z,28.93
2017-11-03T11:32:27.332Z,28.02
2017-11-03T11:33:27.380Z,28.04
2017-11-03T11:34:27.430Z,28.21
2017-11-03T11:35:27.480Z,28.67
2017-11-03T11:36:27.530Z,27.14
2017-11-03T11:37:27.585Z,26.12
2017-11-03T11:38:27.628Z,26.84
2017-11-03T11:39:27.677Z,27.93
2017-11-03T11:40:27.730Z,29.89
2017-11-03T11:41:27.778Z,29.02
2017-11-03T11:42:27.828Z,26.87
2017-11-03T11:43:27.878Z,25.60
2017-11-03T11:44:27.928Z,24.83
2017-11-03T11:45:27.978Z,24.20
2017-11-03T11:46:28.028Z,23.10
2017-11-03T11:47:28.077Z,22.52
2017-11-03T11:48:28.125Z,21.62
2017-11-03T11:49:28.175Z,22.00
2017-11-03T11:50:28.223Z,21.40
2017-11-03T11:51:28.272Z,20.61
2017-11-03T11:52:28.324Z,20.16
2017-11-03T11:53:28.368Z,20.08
2017-11-03T11:54:28.415Z,20.58
2017-11-03T11:55:28.463Z,23.35
2017-11-03T11:56:28.509Z,25.08
2017-11-03T11:57:28.571Z,25.91
2017-11-03T11:58:28.603Z,25.32
2017-11-03T11:59:28.649Z,23.88
2017-11-03T12:00:28.697Z,23.16
2017-11-03T12:01:28.744Z,23.85
2017-11-03T12:02:28.791Z,25.87
2017-11-03T12:03:28.838Z,27.17
2017-11-03T12:04:28.891Z,27.43
2017-11-03T12:05:28.932Z,27.55
2017-11-03T12:06:28.978Z,26.29
2017-11-03T12:07:29.030Z,27.03
2017-11-03T12:08:29.073Z,25.72
2017-11-03T12:09:29.123Z,26.82
2017-11-03T12:10:29.169Z,27.02
2017-11-03T12:11:29.219Z,28.83
2017-11-03T12:12:29.267Z,28.22
2017-11-03T12:13:29.316Z,28.81
2017-11-03T12:14:29.364Z,30.01
2017-11-03T12:15:29.413Z,29.67
2017-11-03T12:16:29.464Z,29.74
2017-11-03T12:17:29.530Z,29.28
2017-11-03T12:18:29.563Z,28.78
2017-11-03T12:19:29.612Z,29.67
2017-11-03T12:20:29.663Z,29.41
2017-11-03T12:21:29.712Z,30.67
2017-11-03T12:22:29.762Z,31.26
2017-11-03T12:23:29.822Z,31.51
2017-11-03T12:24:29.866Z,32.10
2017-11-03T12:25:29.918Z,33.16
2017-11-03T12:26:29.967Z,33.44
2017-11-03T12:27:30.017Z,33.93
2017-11-03T12:28:30.070Z,33.60
2017-11-03T12:29:30.121Z,33.60
2017-11-03T12:30:30.171Z,32.96
2017-11-03T12:31:30.224Z,32.45
2017-11-03T12:32:30.277Z,33.04
2017-11-03T12:33:30.329Z,32.59
2017-11-03T12:34:30.379Z,33.56
2017-11-03T12:35:30.433Z,34.37
2017-11-03T12:36:30.485Z,32.93
2017-11-03T12:37:30.538Z,30.91
2017-11-03T12:38:30.589Z,28.77
2017-11-03T12:39:30.642Z,27.59
2017-11-03T12:40:30.696Z,26.67
2017-11-03T12:41:30.747Z,24.90
2017-11-03T12:42:30.797Z,23.48
2017-11-03T12:43:30.851Z,22.57
2017-11-03T12:44:30.901Z,23.39
2017-11-03T12:45:30.954Z,25.83
2017-11-03T12:46:31.009Z,27.59
2017-11-03T12:47:31.053Z,26.91
2017-11-03T12:48:31.107Z,27.92
2017-11-03T12:49:31.155Z,28.25
2017-11-03T12:50:31.205Z,29.37
2017-11-03T12:51:31.256Z,30.61
2017-11-03T12:52:31.306Z,31.54